sensor_id;sensor_type;location;lat;lon;timestamp;P1;durP1;ratioP1;P2;durP2;ratioP2
19084;SDS011;9675;51.538;6.728;2022-08-19T00:01:22;1.40;;;1.30;;
19084;SDS011;9675;51.538;6.728;2022-08-19T00:03:50;1.33;;;1.20;;
19084;SDS011;9675;51.538;6.728;2022-08-19T00:06:17;1.43;;;1.33;;
19084;SDS011;9675;51.538;6.728;2022-08-19T00:08:44;3.73;;;1.70;;
19084;SDS011;9675;51.538;6.728;2022-08-19T00:11:12;1.60;;;1.20;;
19084;SDS011;9675;51.538;6.728;2022-08-19T00:13:39;1.57;;;1.20;;
19084;SDS011;9675;51.538;6.728;2022-08-19T00:16:07;2.23;;;1.70;;
19084;SDS011;9675;51.538;6.728;2022-08-19T00:18:35;2.00;;;1.30;;
19084;SDS011;9675;51.538;6.728;2022-08-19T00:21:02;1.40;;;1.17;;
19084;SDS011;9675;51.538;6.728;2022-08-19T00:23:33;2.70;;;1.30;;
19084;SDS011;9675;51.538;6.728;2022-08-19T00:26:01;2.60;;;1.60;;
19084;SDS011;9675;51.538;6.728;2022-08-19T00:28:29;2.47;;;1.53;;
19084;SDS011;9675;51.538;6.728;2022-08-19T00:30:58;1.77;;;1.30;;
19084;SDS011;9675;51.538;6.728;2022-08-19T00:33:28;2.73;;;1.60;;
19084;SDS011;9675;51.538;6.728;2022-08-19T00:35:57;2.10;;;1.57;;
19084;SDS011;9675;51.538;6.728;2022-08-19T00:38:25;2.43;;;1.57;;
19084;SDS011;9675;51.538;6.728;2022-08-19T00:40:52;2.13;;;1.40;;
19084;SDS011;9675;51.538;6.728;2022-08-19T00:43:22;2.13;;;1.63;;
19084;SDS011;9675;51.538;6.728;2022-08-19T00:45:52;2.60;;;1.50;;
19084;SDS011;9675;51.538;6.728;2022-08-19T00:48:19;2.00;;;1.53;;
19084;SDS011;9675;51.538;6.728;2022-08-19T00:50:49;1.63;;;1.07;;
19084;SDS011;9675;51.538;6.728;2022-08-19T00:53:22;1.67;;;1.37;;
19084;SDS011;9675;51.538;6.728;2022-08-19T00:55:55;1.80;;;1.70;;
19084;SDS011;9675;51.538;6.728;2022-08-19T00:58:27;2.67;;;1.60;;
19084;SDS011;9675;51.538;6.728;2022-08-19T01:00:59;2.07;;;1.47;;
19084;SDS011;9675;51.538;6.728;2022-08-19T01:03:27;1.70;;;1.27;;
19084;SDS011;9675;51.538;6.728;2022-08-19T01:05:56;1.60;;;1.40;;
19084;SDS011;9675;51.538;6.728;2022-08-19T01:08:25;1.93;;;1.63;;
19084;SDS011;9675;51.538;6.728;2022-08-19T01:10:54;2.13;;;1.50;;
19084;SDS011;9675;51.538;6.728;2022-08-19T01:13:25;2.00;;;1.50;;
19084;SDS011;9675;51.538;6.728;2022-08-19T01:15:56;1.70;;;1.40;;
19084;SDS011;9675;51.538;6.728;2022-08-19T01:18:27;2.17;;;1.43;;
19084;SDS011;9675;51.538;6.728;2022-08-19T01:21:05;1.93;;;1.23;;
19084;SDS011;9675;51.538;6.728;2022-08-19T01:23:44;1.60;;;1.50;;
19084;SDS011;9675;51.538;6.728;2022-08-19T01:26:13;2.03;;;1.23;;
19084;SDS011;9675;51.538;6.728;2022-08-19T01:28:45;2.23;;;1.70;;
19084;SDS011;9675;51.538;6.728;2022-08-19T01:31:16;1.70;;;1.30;;
19084;SDS011;9675;51.538;6.728;2022-08-19T01:33:47;1.10;;;1.00;;
19084;SDS011;9675;51.538;6.728;2022-08-19T01:36:16;2.93;;;1.57;;
19084;SDS011;9675;51.538;6.728;2022-08-19T01:38:52;1.97;;;1.50;;
19084;SDS011;9675;51.538;6.728;2022-08-19T01:41:20;1.30;;;1.07;;
19084;SDS011;9675;51.538;6.728;2022-08-19T01:43:48;1.43;;;1.33;;
19084;SDS011;9675;51.538;6.728;2022-08-19T01:46:17;2.70;;;1.70;;
19084;SDS011;9675;51.538;6.728;2022-08-19T01:48:46;2.70;;;1.80;;
19084;SDS011;9675;51.538;6.728;2022-08-19T01:51:13;3.63;;;1.73;;
19084;SDS011;9675;51.538;6.728;2022-08-19T01:53:41;1.60;;;1.30;;
19084;SDS011;9675;51.538;6.728;2022-08-19T01:56:09;2.57;;;1.37;;
19084;SDS011;9675;51.538;6.728;2022-08-19T01:58:38;1.97;;;1.40;;
19084;SDS011;9675;51.538;6.728;2022-08-19T02:01:13;2.40;;;1.30;;
19084;SDS011;9675;51.538;6.728;2022-08-19T02:03:40;2.67;;;1.53;;
19084;SDS011;9675;51.538;6.728;2022-08-19T02:06:07;2.37;;;1.37;;
19084;SDS011;9675;51.538;6.728;2022-08-19T02:08:35;1.07;;;0.97;;
19084;SDS011;9675;51.538;6.728;2022-08-19T02:11:05;2.10;;;1.07;;
19084;SDS011;9675;51.538;6.728;2022-08-19T02:13:35;3.17;;;1.57;;
19084;SDS011;9675;51.538;6.728;2022-08-19T02:16:02;1.87;;;1.50;;
19084;SDS011;9675;51.538;6.728;2022-08-19T02:18:30;1.00;;;0.90;;
19084;SDS011;9675;51.538;6.728;2022-08-19T02:20:58;1.30;;;1.00;;
19084;SDS011;9675;51.538;6.728;2022-08-19T02:23:25;2.17;;;1.43;;
19084;SDS011;9675;51.538;6.728;2022-08-19T02:25:52;1.83;;;1.33;;
19084;SDS011;9675;51.538;6.728;2022-08-19T02:28:20;3.23;;;1.40;;
19084;SDS011;9675;51.538;6.728;2022-08-19T02:30:48;3.00;;;1.50;;
19084;SDS011;9675;51.538;6.728;2022-08-19T02:33:15;2.03;;;1.60;;
19084;SDS011;9675;51.538;6.728;2022-08-19T02:35:43;2.17;;;1.60;;
19084;SDS011;9675;51.538;6.728;2022-08-19T02:38:12;1.50;;;1.27;;
19084;SDS011;9675;51.538;6.728;2022-08-19T02:40:52;3.07;;;1.40;;
19084;SDS011;9675;51.538;6.728;2022-08-19T02:43:21;6.00;;;1.37;;
19084;SDS011;9675;51.538;6.728;2022-08-19T02:45:51;2.27;;;1.07;;
19084;SDS011;9675;51.538;6.728;2022-08-19T02:48:19;1.50;;;1.40;;
19084;SDS011;9675;51.538;6.728;2022-08-19T02:50:49;1.37;;;1.27;;
19084;SDS011;9675;51.538;6.728;2022-08-19T02:53:20;2.30;;;1.77;;
19084;SDS011;9675;51.538;6.728;2022-08-19T02:55:49;3.07;;;1.40;;
19084;SDS011;9675;51.538;6.728;2022-08-19T02:58:17;3.00;;;2.00;;
19084;SDS011;9675;51.538;6.728;2022-08-19T03:00:46;4.80;;;1.47;;
19084;SDS011;9675;51.538;6.728;2022-08-19T03:03:18;1.80;;;1.50;;
19084;SDS011;9675;51.538;6.728;2022-08-19T03:05:46;3.07;;;1.50;;
19084;SDS011;9675;51.538;6.728;2022-08-19T03:08:14;2.27;;;1.37;;
19084;SDS011;9675;51.538;6.728;2022-08-19T03:10:42;2.33;;;1.70;;
19084;SDS011;9675;51.538;6.728;2022-08-19T03:13:13;2.53;;;1.60;;
19084;SDS011;9675;51.538;6.728;2022-08-19T03:15:44;2.27;;;1.53;;
19084;SDS011;9675;51.538;6.728;2022-08-19T03:18:15;1.53;;;1.43;;
19084;SDS011;9675;51.538;6.728;2022-08-19T03:20:43;2.07;;;1.53;;
19084;SDS011;9675;51.538;6.728;2022-08-19T03:23:13;2.00;;;1.40;;
19084;SDS011;9675;51.538;6.728;2022-08-19T03:25:42;2.20;;;1.30;;
19084;SDS011;9675;51.538;6.728;2022-08-19T03:28:13;3.10;;;1.80;;
19084;SDS011;9675;51.538;6.728;2022-08-19T03:30:42;3.27;;;1.37;;
19084;SDS011;9675;51.538;6.728;2022-08-19T03:33:23;1.70;;;1.20;;
19084;SDS011;9675;51.538;6.728;2022-08-19T03:36:07;2.87;;;1.60;;
19084;SDS011;9675;51.538;6.728;2022-08-19T03:38:38;3.07;;;1.67;;
19084;SDS011;9675;51.538;6.728;2022-08-19T03:41:11;2.77;;;1.80;;
19084;SDS011;9675;51.538;6.728;2022-08-19T03:43:42;5.67;;;2.10;;
19084;SDS011;9675;51.538;6.728;2022-08-19T03:46:12;2.97;;;1.57;;
19084;SDS011;9675;51.538;6.728;2022-08-19T03:48:46;3.10;;;1.50;;
19084;SDS011;9675;51.538;6.728;2022-08-19T03:51:19;3.87;;;1.60;;
19084;SDS011;9675;51.538;6.728;2022-08-19T03:53:48;2.90;;;1.83;;
19084;SDS011;9675;51.538;6.728;2022-08-19T03:56:15;1.80;;;1.50;;
19084;SDS011;9675;51.538;6.728;2022-08-19T03:58:43;4.67;;;2.60;;
19084;SDS011;9675;51.538;6.728;2022-08-19T04:01:12;2.80;;;1.40;;
19084;SDS011;9675;51.538;6.728;2022-08-19T04:03:43;2.77;;;1.77;;
19084;SDS011;9675;51.538;6.728;2022-08-19T04:06:14;5.07;;;2.03;;
19084;SDS011;9675;51.538;6.728;2022-08-19T04:08:45;3.23;;;1.90;;
19084;SDS011;9675;51.538;6.728;2022-08-19T04:11:15;4.13;;;1.47;;
19084;SDS011;9675;51.538;6.728;2022-08-19T04:13:46;2.73;;;2.03;;
19084;SDS011;9675;51.538;6.728;2022-08-19T04:16:16;3.17;;;2.03;;
19084;SDS011;9675;51.538;6.728;2022-08-19T04:18:43;2.40;;;1.63;;
19084;SDS011;9675;51.538;6.728;2022-08-19T04:21:15;1.83;;;1.60;;
19084;SDS011;9675;51.538;6.728;2022-08-19T04:23:47;4.47;;;1.60;;
19084;SDS011;9675;51.538;6.728;2022-08-19T04:26:15;3.20;;;2.07;;
19084;SDS011;9675;51.538;6.728;2022-08-19T04:28:46;3.83;;;1.77;;
19084;SDS011;9675;51.538;6.728;2022-08-19T04:31:14;4.47;;;1.90;;
19084;SDS011;9675;51.538;6.728;2022-08-19T04:33:45;1.60;;;1.33;;
19084;SDS011;9675;51.538;6.728;2022-08-19T04:36:15;3.07;;;2.10;;
19084;SDS011;9675;51.538;6.728;2022-08-19T04:38:45;7.47;;;2.20;;
19084;SDS011;9675;51.538;6.728;2022-08-19T04:41:13;2.23;;;1.30;;
19084;SDS011;9675;51.538;6.728;2022-08-19T04:43:59;3.03;;;1.70;;
19084;SDS011;9675;51.538;6.728;2022-08-19T04:46:27;3.03;;;2.03;;
19084;SDS011;9675;51.538;6.728;2022-08-19T04:48:55;4.13;;;2.50;;
19084;SDS011;9675;51.538;6.728;2022-08-19T04:51:24;2.83;;;2.03;;
19084;SDS011;9675;51.538;6.728;2022-08-19T04:53:51;3.27;;;1.93;;
19084;SDS011;9675;51.538;6.728;2022-08-19T04:56:19;2.37;;;1.67;;
19084;SDS011;9675;51.538;6.728;2022-08-19T04:58:47;3.07;;;1.83;;
19084;SDS011;9675;51.538;6.728;2022-08-19T05:01:17;2.50;;;2.07;;
19084;SDS011;9675;51.538;6.728;2022-08-19T05:03:48;2.03;;;1.57;;
19084;SDS011;9675;51.538;6.728;2022-08-19T05:06:16;3.40;;;2.33;;
19084;SDS011;9675;51.538;6.728;2022-08-19T05:08:47;2.53;;;1.83;;
19084;SDS011;9675;51.538;6.728;2022-08-19T05:11:16;4.40;;;2.60;;
19084;SDS011;9675;51.538;6.728;2022-08-19T05:13:46;6.83;;;3.20;;
19084;SDS011;9675;51.538;6.728;2022-08-19T05:16:16;4.80;;;3.07;;
19084;SDS011;9675;51.538;6.728;2022-08-19T05:18:46;3.73;;;1.83;;
19084;SDS011;9675;51.538;6.728;2022-08-19T05:21:31;3.13;;;2.30;;
19084;SDS011;9675;51.538;6.728;2022-08-19T05:24:18;3.93;;;2.53;;
19084;SDS011;9675;51.538;6.728;2022-08-19T05:26:47;4.53;;;2.70;;
19084;SDS011;9675;51.538;6.728;2022-08-19T05:29:18;7.67;;;4.07;;
19084;SDS011;9675;51.538;6.728;2022-08-19T05:31:47;5.90;;;3.03;;
19084;SDS011;9675;51.538;6.728;2022-08-19T05:34:15;7.67;;;4.23;;
19084;SDS011;9675;51.538;6.728;2022-08-19T05:36:46;9.37;;;4.17;;
19084;SDS011;9675;51.538;6.728;2022-08-19T05:39:23;11.43;;;5.27;;
19084;SDS011;9675;51.538;6.728;2022-08-19T05:41:55;7.43;;;3.70;;
19084;SDS011;9675;51.538;6.728;2022-08-19T05:44:25;4.87;;;3.07;;
19084;SDS011;9675;51.538;6.728;2022-08-19T05:46:56;6.63;;;3.57;;
19084;SDS011;9675;51.538;6.728;2022-08-19T05:49:25;6.47;;;3.73;;
19084;SDS011;9675;51.538;6.728;2022-08-19T05:51:53;8.77;;;4.47;;
19084;SDS011;9675;51.538;6.728;2022-08-19T05:54:22;10.73;;;5.20;;
19084;SDS011;9675;51.538;6.728;2022-08-19T05:56:51;7.17;;;4.37;;
19084;SDS011;9675;51.538;6.728;2022-08-19T05:59:19;15.10;;;5.53;;
19084;SDS011;9675;51.538;6.728;2022-08-19T06:01:47;10.90;;;5.93;;
19084;SDS011;9675;51.538;6.728;2022-08-19T06:04:19;16.87;;;6.37;;
19084;SDS011;9675;51.538;6.728;2022-08-19T06:06:48;9.50;;;3.47;;
19084;SDS011;9675;51.538;6.728;2022-08-19T06:09:19;10.13;;;5.50;;
19084;SDS011;9675;51.538;6.728;2022-08-19T06:11:50;15.30;;;7.23;;
19084;SDS011;9675;51.538;6.728;2022-08-19T06:14:20;13.73;;;6.07;;
19084;SDS011;9675;51.538;6.728;2022-08-19T06:16:50;14.33;;;6.27;;
19084;SDS011;9675;51.538;6.728;2022-08-19T06:19:18;12.47;;;6.80;;
19084;SDS011;9675;51.538;6.728;2022-08-19T06:21:49;18.00;;;7.20;;
19084;SDS011;9675;51.538;6.728;2022-08-19T06:24:19;13.50;;;6.67;;
19084;SDS011;9675;51.538;6.728;2022-08-19T06:26:52;10.17;;;5.47;;
19084;SDS011;9675;51.538;6.728;2022-08-19T06:29:22;15.40;;;6.13;;
19084;SDS011;9675;51.538;6.728;2022-08-19T06:31:52;16.03;;;7.37;;
19084;SDS011;9675;51.538;6.728;2022-08-19T06:34:22;16.10;;;6.43;;
19084;SDS011;9675;51.538;6.728;2022-08-19T06:36:52;14.53;;;6.90;;
19084;SDS011;9675;51.538;6.728;2022-08-19T06:39:20;9.80;;;4.10;;
19084;SDS011;9675;51.538;6.728;2022-08-19T06:41:52;11.80;;;6.13;;
19084;SDS011;9675;51.538;6.728;2022-08-19T06:44:23;6.63;;;4.37;;
19084;SDS011;9675;51.538;6.728;2022-08-19T06:46:54;11.70;;;3.80;;
19084;SDS011;9675;51.538;6.728;2022-08-19T06:49:21;12.40;;;6.33;;
19084;SDS011;9675;51.538;6.728;2022-08-19T06:51:53;18.57;;;7.57;;
19084;SDS011;9675;51.538;6.728;2022-08-19T06:54:21;13.87;;;6.83;;
19084;SDS011;9675;51.538;6.728;2022-08-19T06:56:49;12.00;;;6.50;;
19084;SDS011;9675;51.538;6.728;2022-08-19T06:59:19;10.43;;;5.07;;
19084;SDS011;9675;51.538;6.728;2022-08-19T07:01:53;12.53;;;6.90;;
19084;SDS011;9675;51.538;6.728;2022-08-19T07:04:24;14.67;;;7.40;;
19084;SDS011;9675;51.538;6.728;2022-08-19T07:06:57;8.93;;;4.53;;
19084;SDS011;9675;51.538;6.728;2022-08-19T07:09:27;14.00;;;6.93;;
19084;SDS011;9675;51.538;6.728;2022-08-19T07:11:56;17.83;;;8.93;;
19084;SDS011;9675;51.538;6.728;2022-08-19T07:14:24;13.37;;;6.70;;
19084;SDS011;9675;51.538;6.728;2022-08-19T07:16:53;9.03;;;5.33;;
19084;SDS011;9675;51.538;6.728;2022-08-19T07:19:24;13.23;;;7.53;;
19084;SDS011;9675;51.538;6.728;2022-08-19T07:21:53;16.67;;;8.10;;
19084;SDS011;9675;51.538;6.728;2022-08-19T07:24:22;6.83;;;4.43;;
19084;SDS011;9675;51.538;6.728;2022-08-19T07:26:52;7.97;;;3.53;;
19084;SDS011;9675;51.538;6.728;2022-08-19T07:29:25;12.83;;;6.40;;
19084;SDS011;9675;51.538;6.728;2022-08-19T07:31:54;13.00;;;5.57;;
19084;SDS011;9675;51.538;6.728;2022-08-19T07:34:23;8.93;;;4.77;;
19084;SDS011;9675;51.538;6.728;2022-08-19T07:36:52;15.83;;;6.73;;
19084;SDS011;9675;51.538;6.728;2022-08-19T07:39:21;16.17;;;7.17;;
19084;SDS011;9675;51.538;6.728;2022-08-19T07:41:51;12.07;;;5.47;;
19084;SDS011;9675;51.538;6.728;2022-08-19T07:44:21;13.13;;;6.50;;
19084;SDS011;9675;51.538;6.728;2022-08-19T07:46:50;12.20;;;5.63;;
19084;SDS011;9675;51.538;6.728;2022-08-19T07:49:21;16.30;;;8.37;;
19084;SDS011;9675;51.538;6.728;2022-08-19T07:51:52;10.67;;;5.50;;
19084;SDS011;9675;51.538;6.728;2022-08-19T07:54:23;11.23;;;5.57;;
19084;SDS011;9675;51.538;6.728;2022-08-19T07:56:53;14.57;;;6.93;;
19084;SDS011;9675;51.538;6.728;2022-08-19T07:59:22;10.07;;;4.13;;
19084;SDS011;9675;51.538;6.728;2022-08-19T08:01:50;10.40;;;3.27;;
19084;SDS011;9675;51.538;6.728;2022-08-19T08:04:18;9.60;;;4.60;;
19084;SDS011;9675;51.538;6.728;2022-08-19T08:07:04;13.43;;;6.57;;
19084;SDS011;9675;51.538;6.728;2022-08-19T08:09:50;14.17;;;7.33;;
19084;SDS011;9675;51.538;6.728;2022-08-19T08:12:21;11.27;;;5.10;;
19084;SDS011;9675;51.538;6.728;2022-08-19T08:14:56;15.83;;;8.57;;
19084;SDS011;9675;51.538;6.728;2022-08-19T08:17:27;12.03;;;6.20;;
19084;SDS011;9675;51.538;6.728;2022-08-19T08:19:57;12.00;;;5.90;;
19084;SDS011;9675;51.538;6.728;2022-08-19T08:22:25;15.57;;;8.13;;
19084;SDS011;9675;51.538;6.728;2022-08-19T08:25:10;13.17;;;6.83;;
19084;SDS011;9675;51.538;6.728;2022-08-19T08:27:42;7.87;;;4.50;;
19084;SDS011;9675;51.538;6.728;2022-08-19T08:30:13;10.73;;;4.67;;
19084;SDS011;9675;51.538;6.728;2022-08-19T08:32:44;13.57;;;6.47;;
19084;SDS011;9675;51.538;6.728;2022-08-19T08:35:13;13.03;;;6.23;;
19084;SDS011;9675;51.538;6.728;2022-08-19T08:37:43;12.80;;;5.90;;
19084;SDS011;9675;51.538;6.728;2022-08-19T08:40:14;12.23;;;6.23;;
19084;SDS011;9675;51.538;6.728;2022-08-19T08:42:48;11.60;;;5.87;;
19084;SDS011;9675;51.538;6.728;2022-08-19T08:45:27;8.50;;;4.73;;
19084;SDS011;9675;51.538;6.728;2022-08-19T08:47:57;15.53;;;6.10;;
19084;SDS011;9675;51.538;6.728;2022-08-19T08:50:37;9.10;;;4.40;;
19084;SDS011;9675;51.538;6.728;2022-08-19T08:53:11;6.13;;;3.07;;
19084;SDS011;9675;51.538;6.728;2022-08-19T08:55:43;14.67;;;4.97;;
19084;SDS011;9675;51.538;6.728;2022-08-19T08:58:13;9.07;;;5.37;;
19084;SDS011;9675;51.538;6.728;2022-08-19T09:00:51;6.70;;;3.97;;
19084;SDS011;9675;51.538;6.728;2022-08-19T09:03:19;8.80;;;4.57;;
19084;SDS011;9675;51.538;6.728;2022-08-19T09:05:52;8.73;;;4.10;;
19084;SDS011;9675;51.538;6.728;2022-08-19T09:08:30;12.83;;;5.93;;
19084;SDS011;9675;51.538;6.728;2022-08-19T09:11:12;5.03;;;3.33;;
19084;SDS011;9675;51.538;6.728;2022-08-19T09:13:51;11.00;;;5.07;;
19084;SDS011;9675;51.538;6.728;2022-08-19T09:16:36;9.50;;;4.33;;
19084;SDS011;9675;51.538;6.728;2022-08-19T09:19:05;11.33;;;5.10;;
19084;SDS011;9675;51.538;6.728;2022-08-19T09:21:35;13.97;;;5.70;;
19084;SDS011;9675;51.538;6.728;2022-08-19T09:24:04;14.93;;;6.67;;
19084;SDS011;9675;51.538;6.728;2022-08-19T09:26:32;16.23;;;6.37;;
19084;SDS011;9675;51.538;6.728;2022-08-19T09:29:00;11.90;;;5.00;;
19084;SDS011;9675;51.538;6.728;2022-08-19T09:31:30;14.90;;;6.00;;
19084;SDS011;9675;51.538;6.728;2022-08-19T09:33:59;13.23;;;5.77;;
19084;SDS011;9675;51.538;6.728;2022-08-19T09:36:29;9.87;;;5.47;;
19084;SDS011;9675;51.538;6.728;2022-08-19T09:38:58;5.20;;;3.23;;
19084;SDS011;9675;51.538;6.728;2022-08-19T09:41:26;9.33;;;4.33;;
19084;SDS011;9675;51.538;6.728;2022-08-19T09:43:54;15.13;;;5.57;;
19084;SDS011;9675;51.538;6.728;2022-08-19T09:46:25;11.17;;;5.50;;
19084;SDS011;9675;51.538;6.728;2022-08-19T09:48:59;17.90;;;5.17;;
19084;SDS011;9675;51.538;6.728;2022-08-19T09:51:31;8.80;;;3.80;;
19084;SDS011;9675;51.538;6.728;2022-08-19T09:53:59;6.80;;;2.97;;
19084;SDS011;9675;51.538;6.728;2022-08-19T09:56:29;11.83;;;5.07;;
19084;SDS011;9675;51.538;6.728;2022-08-19T09:58:58;5.47;;;3.47;;
19084;SDS011;9675;51.538;6.728;2022-08-19T10:01:27;10.37;;;5.77;;
19084;SDS011;9675;51.538;6.728;2022-08-19T10:03:58;10.20;;;5.33;;
19084;SDS011;9675;51.538;6.728;2022-08-19T10:06:29;17.97;;;8.37;;
19084;SDS011;9675;51.538;6.728;2022-08-19T10:08:58;17.27;;;7.33;;
19084;SDS011;9675;51.538;6.728;2022-08-19T10:11:26;11.30;;;6.30;;
19084;SDS011;9675;51.538;6.728;2022-08-19T10:13:54;14.13;;;5.97;;
19084;SDS011;9675;51.538;6.728;2022-08-19T10:16:21;9.40;;;5.10;;
19084;SDS011;9675;51.538;6.728;2022-08-19T10:18:50;11.50;;;5.97;;
19084;SDS011;9675;51.538;6.728;2022-08-19T10:21:21;12.53;;;6.20;;
19084;SDS011;9675;51.538;6.728;2022-08-19T10:23:52;9.97;;;5.83;;
19084;SDS011;9675;51.538;6.728;2022-08-19T10:26:24;12.90;;;5.10;;
19084;SDS011;9675;51.538;6.728;2022-08-19T10:28:53;6.80;;;3.57;;
19084;SDS011;9675;51.538;6.728;2022-08-19T10:31:22;13.13;;;6.40;;
19084;SDS011;9675;51.538;6.728;2022-08-19T10:33:51;4.97;;;2.70;;
19084;SDS011;9675;51.538;6.728;2022-08-19T10:36:24;9.37;;;4.97;;
19084;SDS011;9675;51.538;6.728;2022-08-19T10:38:56;11.33;;;5.40;;
19084;SDS011;9675;51.538;6.728;2022-08-19T10:41:27;9.37;;;5.10;;
19084;SDS011;9675;51.538;6.728;2022-08-19T10:43:59;10.30;;;4.67;;
19084;SDS011;9675;51.538;6.728;2022-08-19T10:46:30;11.90;;;4.87;;
19084;SDS011;9675;51.538;6.728;2022-08-19T10:49:00;8.67;;;4.47;;
19084;SDS011;9675;51.538;6.728;2022-08-19T10:51:31;6.80;;;3.27;;
19084;SDS011;9675;51.538;6.728;2022-08-19T10:54:16;8.43;;;3.73;;
19084;SDS011;9675;51.538;6.728;2022-08-19T10:56:43;14.10;;;6.73;;
19084;SDS011;9675;51.538;6.728;2022-08-19T10:59:21;4.63;;;2.87;;
19084;SDS011;9675;51.538;6.728;2022-08-19T11:01:52;17.37;;;7.47;;
19084;SDS011;9675;51.538;6.728;2022-08-19T11:04:24;11.63;;;5.90;;
19084;SDS011;9675;51.538;6.728;2022-08-19T11:06:53;10.40;;;4.90;;
19084;SDS011;9675;51.538;6.728;2022-08-19T11:09:23;10.27;;;4.30;;
19084;SDS011;9675;51.538;6.728;2022-08-19T11:11:52;6.37;;;3.97;;
19084;SDS011;9675;51.538;6.728;2022-08-19T11:14:23;9.53;;;4.93;;
19084;SDS011;9675;51.538;6.728;2022-08-19T11:16:51;11.07;;;5.40;;
19084;SDS011;9675;51.538;6.728;2022-08-19T11:19:21;10.70;;;5.63;;
19084;SDS011;9675;51.538;6.728;2022-08-19T11:21:49;6.93;;;4.30;;
19084;SDS011;9675;51.538;6.728;2022-08-19T11:24:20;6.63;;;3.60;;
19084;SDS011;9675;51.538;6.728;2022-08-19T11:26:50;6.90;;;2.97;;
19084;SDS011;9675;51.538;6.728;2022-08-19T11:29:22;6.80;;;3.63;;
19084;SDS011;9675;51.538;6.728;2022-08-19T11:31:52;7.00;;;3.07;;
19084;SDS011;9675;51.538;6.728;2022-08-19T11:34:20;4.77;;;2.60;;
19084;SDS011;9675;51.538;6.728;2022-08-19T11:36:53;5.70;;;2.53;;
19084;SDS011;9675;51.538;6.728;2022-08-19T11:39:23;5.10;;;3.30;;
19084;SDS011;9675;51.538;6.728;2022-08-19T11:41:52;5.17;;;3.23;;
19084;SDS011;9675;51.538;6.728;2022-08-19T11:44:19;4.43;;;3.07;;
19084;SDS011;9675;51.538;6.728;2022-08-19T11:46:47;7.40;;;3.20;;
19084;SDS011;9675;51.538;6.728;2022-08-19T11:49:14;5.30;;;3.10;;
19084;SDS011;9675;51.538;6.728;2022-08-19T11:51:45;3.63;;;2.40;;
19084;SDS011;9675;51.538;6.728;2022-08-19T11:54:16;4.87;;;3.00;;
19084;SDS011;9675;51.538;6.728;2022-08-19T11:56:43;4.80;;;2.93;;
19084;SDS011;9675;51.538;6.728;2022-08-19T11:59:12;3.57;;;2.27;;
19084;SDS011;9675;51.538;6.728;2022-08-19T12:01:39;6.37;;;3.17;;
19084;SDS011;9675;51.538;6.728;2022-08-19T12:04:07;7.83;;;2.90;;
19084;SDS011;9675;51.538;6.728;2022-08-19T12:06:37;6.43;;;2.60;;
19084;SDS011;9675;51.538;6.728;2022-08-19T12:09:07;7.33;;;3.00;;
19084;SDS011;9675;51.538;6.728;2022-08-19T12:11:38;3.73;;;2.53;;
19084;SDS011;9675;51.538;6.728;2022-08-19T12:14:06;3.97;;;2.63;;
19084;SDS011;9675;51.538;6.728;2022-08-19T12:16:36;5.10;;;2.73;;
19084;SDS011;9675;51.538;6.728;2022-08-19T12:19:04;3.30;;;2.20;;
19084;SDS011;9675;51.538;6.728;2022-08-19T12:21:33;3.87;;;2.00;;
19084;SDS011;9675;51.538;6.728;2022-08-19T12:24:03;4.43;;;2.10;;
19084;SDS011;9675;51.538;6.728;2022-08-19T12:26:32;2.77;;;1.90;;
19084;SDS011;9675;51.538;6.728;2022-08-19T12:29:01;7.87;;;2.40;;
19084;SDS011;9675;51.538;6.728;2022-08-19T12:31:29;5.20;;;2.37;;
19084;SDS011;9675;51.538;6.728;2022-08-19T12:33:57;4.13;;;2.17;;
19084;SDS011;9675;51.538;6.728;2022-08-19T12:36:27;2.10;;;1.43;;
19084;SDS011;9675;51.538;6.728;2022-08-19T12:38:55;2.57;;;1.47;;
19084;SDS011;9675;51.538;6.728;2022-08-19T12:41:25;4.90;;;2.70;;
19084;SDS011;9675;51.538;6.728;2022-08-19T12:43:52;2.77;;;2.10;;
19084;SDS011;9675;51.538;6.728;2022-08-19T12:46:21;3.97;;;1.67;;
19084;SDS011;9675;51.538;6.728;2022-08-19T12:48:50;2.70;;;1.60;;
19084;SDS011;9675;51.538;6.728;2022-08-19T12:51:18;1.80;;;1.40;;
19084;SDS011;9675;51.538;6.728;2022-08-19T12:53:45;6.80;;;2.00;;
19084;SDS011;9675;51.538;6.728;2022-08-19T12:56:15;2.57;;;1.50;;
19084;SDS011;9675;51.538;6.728;2022-08-19T12:58:44;2.27;;;1.40;;
19084;SDS011;9675;51.538;6.728;2022-08-19T13:01:11;1.67;;;1.17;;
19084;SDS011;9675;51.538;6.728;2022-08-19T13:03:42;2.43;;;1.40;;
19084;SDS011;9675;51.538;6.728;2022-08-19T13:06:12;3.73;;;1.60;;
19084;SDS011;9675;51.538;6.728;2022-08-19T13:08:41;2.47;;;1.80;;
19084;SDS011;9675;51.538;6.728;2022-08-19T13:11:09;2.77;;;1.90;;
19084;SDS011;9675;51.538;6.728;2022-08-19T13:13:40;1.80;;;1.30;;
19084;SDS011;9675;51.538;6.728;2022-08-19T13:16:09;2.23;;;1.70;;
19084;SDS011;9675;51.538;6.728;2022-08-19T13:18:39;2.10;;;1.50;;
19084;SDS011;9675;51.538;6.728;2022-08-19T13:21:11;2.20;;;1.80;;
19084;SDS011;9675;51.538;6.728;2022-08-19T13:23:39;3.60;;;2.10;;
19084;SDS011;9675;51.538;6.728;2022-08-19T13:26:07;5.67;;;2.20;;
19084;SDS011;9675;51.538;6.728;2022-08-19T13:28:36;3.27;;;2.07;;
19084;SDS011;9675;51.538;6.728;2022-08-19T13:31:22;3.40;;;2.43;;
19084;SDS011;9675;51.538;6.728;2022-08-19T13:34:12;6.33;;;2.60;;
19084;SDS011;9675;51.538;6.728;2022-08-19T13:36:40;3.07;;;2.50;;
19084;SDS011;9675;51.538;6.728;2022-08-19T13:39:08;3.20;;;2.63;;
19084;SDS011;9675;51.538;6.728;2022-08-19T13:41:35;2.87;;;2.23;;
19084;SDS011;9675;51.538;6.728;2022-08-19T13:44:03;3.07;;;2.60;;
19084;SDS011;9675;51.538;6.728;2022-08-19T13:46:32;2.80;;;2.10;;
19084;SDS011;9675;51.538;6.728;2022-08-19T13:48:59;3.93;;;2.07;;
19084;SDS011;9675;51.538;6.728;2022-08-19T13:51:27;4.00;;;2.63;;
19084;SDS011;9675;51.538;6.728;2022-08-19T13:53:54;4.53;;;2.10;;
19084;SDS011;9675;51.538;6.728;2022-08-19T13:56:21;4.80;;;2.30;;
19084;SDS011;9675;51.538;6.728;2022-08-19T13:58:49;4.83;;;3.47;;
19084;SDS011;9675;51.538;6.728;2022-08-19T14:01:18;8.20;;;2.90;;
19084;SDS011;9675;51.538;6.728;2022-08-19T14:03:47;3.70;;;2.70;;
19084;SDS011;9675;51.538;6.728;2022-08-19T14:06:14;6.87;;;3.40;;
19084;SDS011;9675;51.538;6.728;2022-08-19T14:08:44;3.90;;;2.90;;
19084;SDS011;9675;51.538;6.728;2022-08-19T14:11:12;8.17;;;3.37;;
19084;SDS011;9675;51.538;6.728;2022-08-19T14:13:40;6.40;;;3.10;;
19084;SDS011;9675;51.538;6.728;2022-08-19T14:16:07;5.80;;;3.20;;
19084;SDS011;9675;51.538;6.728;2022-08-19T14:18:36;4.47;;;2.80;;
19084;SDS011;9675;51.538;6.728;2022-08-19T14:21:04;4.00;;;2.60;;
19084;SDS011;9675;51.538;6.728;2022-08-19T14:23:33;3.47;;;2.57;;
19084;SDS011;9675;51.538;6.728;2022-08-19T14:26:06;2.70;;;2.10;;
19084;SDS011;9675;51.538;6.728;2022-08-19T14:28:36;3.33;;;2.43;;
19084;SDS011;9675;51.538;6.728;2022-08-19T14:31:06;3.20;;;1.77;;
19084;SDS011;9675;51.538;6.728;2022-08-19T14:33:33;5.83;;;2.47;;
19084;SDS011;9675;51.538;6.728;2022-08-19T14:36:01;3.30;;;1.93;;
19084;SDS011;9675;51.538;6.728;2022-08-19T14:38:29;4.70;;;1.80;;
19084;SDS011;9675;51.538;6.728;2022-08-19T14:41:06;3.53;;;2.17;;
19084;SDS011;9675;51.538;6.728;2022-08-19T14:43:37;3.50;;;2.63;;
19084;SDS011;9675;51.538;6.728;2022-08-19T14:46:05;3.03;;;1.90;;
19084;SDS011;9675;51.538;6.728;2022-08-19T14:48:33;5.17;;;3.43;;
19084;SDS011;9675;51.538;6.728;2022-08-19T14:51:01;5.80;;;3.23;;
19084;SDS011;9675;51.538;6.728;2022-08-19T14:53:28;6.10;;;3.37;;
19084;SDS011;9675;51.538;6.728;2022-08-19T14:55:56;3.70;;;2.40;;
19084;SDS011;9675;51.538;6.728;2022-08-19T14:58:25;3.27;;;2.57;;
19084;SDS011;9675;51.538;6.728;2022-08-19T15:00:53;12.63;;;3.35;;
19084;SDS011;9675;51.538;6.728;2022-08-19T15:03:21;6.83;;;2.93;;
19084;SDS011;9675;51.538;6.728;2022-08-19T15:05:50;3.67;;;2.30;;
19084;SDS011;9675;51.538;6.728;2022-08-19T15:08:17;5.33;;;2.40;;
19084;SDS011;9675;51.538;6.728;2022-08-19T15:10:48;4.83;;;3.07;;
19084;SDS011;9675;51.538;6.728;2022-08-19T15:13:16;6.33;;;3.30;;
19084;SDS011;9675;51.538;6.728;2022-08-19T15:15:44;4.60;;;2.47;;